<?xml version="1.0" encoding="UTF-8" standalone="no" ?>
<gpx xmlns="http://www.topografix.com/GPX/1/1" xmlns:xsi="http://www.w3.org/2001/XMLSchema-instance" xsi:schemaLocation="http://www.topografix.com/GPX/1/1 http://www.topografix.com/GPX/1/1/gpx.xsd" version="1.1" creator="VisuGPX - https://www.visugpx.com">
  <metadata>
    <name>BelleIsleEnTerre_CoatAnNoz</name>
    <desc><![CDATA[gnerando idor: 9221581_9223892_9307726_9314161]]></desc>
  </metadata>
  <trk>
    <name><![CDATA[BIET_CoatAnNoz_14.8km-9221581]]></name>
    <extensions>
      <line xmlns="http://www.topografix.com/GPX/gpx_style/0/2">
        <color>0000FF</color>
        <width>4</width>
      </line>
    </extensions>
    <trkseg>
      <trkpt lat="48.54547" lon="-3.39556">
        <ele>92</ele>
        <time>2023-10-30T17:44:48Z</time>
      </trkpt>
      <trkpt lat="48.54522" lon="-3.39571">
        <ele>93</ele>
        <time>2023-10-30T17:45:24Z</time>
      </trkpt>
      <trkpt lat="48.54525" lon="-3.39588">
        <ele>93</ele>
        <time>2023-10-30T17:45:39Z</time>
      </trkpt>
      <trkpt lat="48.54471" lon="-3.39586">
        <ele>94</ele>
        <time>2023-10-30T17:46:52Z</time>
      </trkpt>
      <trkpt lat="48.54464" lon="-3.39604">
        <ele>94</ele>
        <time>2023-10-30T17:47:10Z</time>
      </trkpt>
      <trkpt lat="48.54416" lon="-3.39614">
        <ele>94</ele>
        <time>2023-10-30T17:48:15Z</time>
      </trkpt>
      <trkpt lat="48.54411" lon="-3.39727">
        <ele>94</ele>
        <time>2023-10-30T17:49:55Z</time>
      </trkpt>
      <trkpt lat="48.54412" lon="-3.39761">
        <ele>95</ele>
        <time>2023-10-30T17:50:25Z</time>
      </trkpt>
      <trkpt lat="48.54336" lon="-3.39767">
        <ele>97</ele>
        <time>2023-10-30T17:52:06Z</time>
      </trkpt>
      <trkpt lat="48.54322" lon="-3.39759">
        <ele>96</ele>
        <time>2023-10-30T17:52:26Z</time>
      </trkpt>
      <trkpt lat="48.54318" lon="-3.39774">
        <ele>98</ele>
        <time>2023-10-30T17:52:41Z</time>
      </trkpt>
      <trkpt lat="48.54255" lon="-3.39801">
        <ele>101</ele>
        <time>2023-10-30T17:54:08Z</time>
      </trkpt>
      <trkpt lat="48.54238" lon="-3.39786">
        <ele>100</ele>
        <time>2023-10-30T17:54:34Z</time>
      </trkpt>
      <trkpt lat="48.54216" lon="-3.39785">
        <ele>100</ele>
        <time>2023-10-30T17:55:04Z</time>
      </trkpt>
      <trkpt lat="48.54191" lon="-3.398">
        <ele>102</ele>
        <time>2023-10-30T17:55:40Z</time>
      </trkpt>
      <trkpt lat="48.5416" lon="-3.39802">
        <ele>104</ele>
        <time>2023-10-30T17:56:21Z</time>
      </trkpt>
      <trkpt lat="48.54107" lon="-3.39777">
        <ele>102</ele>
        <time>2023-10-30T17:57:35Z</time>
      </trkpt>
      <trkpt lat="48.54084" lon="-3.39778">
        <ele>102</ele>
        <time>2023-10-30T17:58:06Z</time>
      </trkpt>
      <trkpt lat="48.54054" lon="-3.3979">
        <ele>103</ele>
        <time>2023-10-30T17:58:47Z</time>
      </trkpt>
      <trkpt lat="48.54015" lon="-3.39781">
        <ele>102</ele>
        <time>2023-10-30T17:59:40Z</time>
      </trkpt>
      <trkpt lat="48.53995" lon="-3.39783">
        <ele>102</ele>
        <time>2023-10-30T18:00:07Z</time>
      </trkpt>
      <trkpt lat="48.53963" lon="-3.398">
        <ele>102</ele>
        <time>2023-10-30T18:00:52Z</time>
      </trkpt>
      <trkpt lat="48.53926" lon="-3.39842">
        <ele>102</ele>
        <time>2023-10-30T18:01:54Z</time>
      </trkpt>
      <trkpt lat="48.53867" lon="-3.39963">
        <ele>115</ele>
        <time>2023-10-30T18:04:06Z</time>
      </trkpt>
      <trkpt lat="48.53844" lon="-3.39973">
        <ele>117</ele>
        <time>2023-10-30T18:04:38Z</time>
      </trkpt>
      <trkpt lat="48.53812" lon="-3.39965">
        <ele>119</ele>
        <time>2023-10-30T18:05:22Z</time>
      </trkpt>
      <trkpt lat="48.53791" lon="-3.39977">
        <ele>122</ele>
        <time>2023-10-30T18:05:52Z</time>
      </trkpt>
      <trkpt lat="48.53793" lon="-3.40024">
        <ele>122</ele>
        <time>2023-10-30T18:06:33Z</time>
      </trkpt>
      <trkpt lat="48.53776" lon="-3.40105">
        <ele>127</ele>
        <time>2023-10-30T18:07:48Z</time>
      </trkpt>
      <trkpt lat="48.53766" lon="-3.40124">
        <ele>129</ele>
        <time>2023-10-30T18:08:10Z</time>
      </trkpt>
      <trkpt lat="48.5373" lon="-3.40086">
        <ele>134</ele>
        <time>2023-10-30T18:09:08Z</time>
      </trkpt>
      <trkpt lat="48.53718" lon="-3.40083">
        <ele>135</ele>
        <time>2023-10-30T18:09:24Z</time>
      </trkpt>
      <trkpt lat="48.53698" lon="-3.40101">
        <ele>137</ele>
        <time>2023-10-30T18:09:56Z</time>
      </trkpt>
      <trkpt lat="48.53661" lon="-3.40167">
        <ele>140</ele>
        <time>2023-10-30T18:11:12Z</time>
      </trkpt>
      <trkpt lat="48.53652" lon="-3.40171">
        <ele>141</ele>
        <time>2023-10-30T18:11:24Z</time>
      </trkpt>
      <trkpt lat="48.5362" lon="-3.40138">
        <ele>143</ele>
        <time>2023-10-30T18:12:16Z</time>
      </trkpt>
      <trkpt lat="48.53587" lon="-3.40089">
        <ele>144</ele>
        <time>2023-10-30T18:13:18Z</time>
      </trkpt>
      <trkpt lat="48.53533" lon="-3.4016">
        <ele>147</ele>
        <time>2023-10-30T18:14:54Z</time>
      </trkpt>
      <trkpt lat="48.53486" lon="-3.40235">
        <ele>150</ele>
        <time>2023-10-30T18:16:25Z</time>
      </trkpt>
      <trkpt lat="48.53496" lon="-3.40247">
        <ele>150</ele>
        <time>2023-10-30T18:16:42Z</time>
      </trkpt>
      <trkpt lat="48.53481" lon="-3.40275">
        <ele>151</ele>
        <time>2023-10-30T18:17:14Z</time>
      </trkpt>
      <trkpt lat="48.53453" lon="-3.40315">
        <ele>152</ele>
        <time>2023-10-30T18:18:05Z</time>
      </trkpt>
      <trkpt lat="48.53441" lon="-3.40336">
        <ele>153</ele>
        <time>2023-10-30T18:18:30Z</time>
      </trkpt>
      <trkpt lat="48.53415" lon="-3.40364">
        <ele>155</ele>
        <time>2023-10-30T18:19:12Z</time>
      </trkpt>
      <trkpt lat="48.534" lon="-3.40371">
        <ele>156</ele>
        <time>2023-10-30T18:19:33Z</time>
      </trkpt>
      <trkpt lat="48.5339" lon="-3.40389">
        <ele>156</ele>
        <time>2023-10-30T18:19:54Z</time>
      </trkpt>
      <trkpt lat="48.53384" lon="-3.40422">
        <ele>157</ele>
        <time>2023-10-30T18:20:24Z</time>
      </trkpt>
      <trkpt lat="48.5334" lon="-3.40501">
        <ele>161</ele>
        <time>2023-10-30T18:21:55Z</time>
      </trkpt>
      <trkpt lat="48.53324" lon="-3.4054">
        <ele>162</ele>
        <time>2023-10-30T18:22:36Z</time>
      </trkpt>
      <trkpt lat="48.53296" lon="-3.40601">
        <ele>164</ele>
        <time>2023-10-30T18:23:41Z</time>
      </trkpt>
      <trkpt lat="48.53289" lon="-3.40612">
        <ele>165</ele>
        <time>2023-10-30T18:23:55Z</time>
      </trkpt>
      <trkpt lat="48.53275" lon="-3.40615">
        <ele>165</ele>
        <time>2023-10-30T18:24:14Z</time>
      </trkpt>
      <trkpt lat="48.5324" lon="-3.40675">
        <ele>167</ele>
        <time>2023-10-30T18:25:24Z</time>
      </trkpt>
      <trkpt lat="48.5322" lon="-3.40722">
        <ele>169</ele>
        <time>2023-10-30T18:26:14Z</time>
      </trkpt>
      <trkpt lat="48.53198" lon="-3.40782">
        <ele>170</ele>
        <time>2023-10-30T18:27:14Z</time>
      </trkpt>
      <trkpt lat="48.53185" lon="-3.40834">
        <ele>171</ele>
        <time>2023-10-30T18:28:04Z</time>
      </trkpt>
      <trkpt lat="48.53135" lon="-3.40963">
        <ele>171</ele>
        <time>2023-10-30T18:30:16Z</time>
      </trkpt>
      <trkpt lat="48.53116" lon="-3.41024">
        <ele>171</ele>
        <time>2023-10-30T18:31:15Z</time>
      </trkpt>
      <trkpt lat="48.53101" lon="-3.41062">
        <ele>170</ele>
        <time>2023-10-30T18:31:54Z</time>
      </trkpt>
      <trkpt lat="48.5308" lon="-3.4115">
        <ele>170</ele>
        <time>2023-10-30T18:33:17Z</time>
      </trkpt>
      <trkpt lat="48.5305" lon="-3.41199">
        <ele>170</ele>
        <time>2023-10-30T18:34:16Z</time>
      </trkpt>
      <trkpt lat="48.53043" lon="-3.4121">
        <ele>170</ele>
        <time>2023-10-30T18:34:29Z</time>
      </trkpt>
      <trkpt lat="48.53051" lon="-3.41279">
        <ele>171</ele>
        <time>2023-10-30T18:35:31Z</time>
      </trkpt>
      <trkpt lat="48.5306" lon="-3.41318">
        <ele>171</ele>
        <time>2023-10-30T18:36:08Z</time>
      </trkpt>
      <trkpt lat="48.53053" lon="-3.4133">
        <ele>171</ele>
        <time>2023-10-30T18:36:22Z</time>
      </trkpt>
      <trkpt lat="48.53058" lon="-3.41348">
        <ele>171</ele>
        <time>2023-10-30T18:36:39Z</time>
      </trkpt>
      <trkpt lat="48.53046" lon="-3.41409">
        <ele>172</ele>
        <time>2023-10-30T18:37:35Z</time>
      </trkpt>
      <trkpt lat="48.53024" lon="-3.41475">
        <ele>172</ele>
        <time>2023-10-30T18:38:41Z</time>
      </trkpt>
      <trkpt lat="48.53009" lon="-3.41545">
        <ele>172</ele>
        <time>2023-10-30T18:39:46Z</time>
      </trkpt>
      <trkpt lat="48.53002" lon="-3.41669">
        <ele>173</ele>
        <time>2023-10-30T18:41:36Z</time>
      </trkpt>
      <trkpt lat="48.52957" lon="-3.41673">
        <ele>173</ele>
        <time>2023-10-30T18:42:36Z</time>
      </trkpt>
      <trkpt lat="48.52864" lon="-3.41611">
        <ele>172</ele>
        <time>2023-10-30T18:44:52Z</time>
      </trkpt>
      <trkpt lat="48.52837" lon="-3.41596">
        <ele>171</ele>
        <time>2023-10-30T18:45:30Z</time>
      </trkpt>
      <trkpt lat="48.527" lon="-3.41556">
        <ele>166</ele>
        <time>2023-10-30T18:48:36Z</time>
      </trkpt>
      <trkpt lat="48.52619" lon="-3.41533">
        <ele>162</ele>
        <time>2023-10-30T18:50:26Z</time>
      </trkpt>
      <trkpt lat="48.52563" lon="-3.41512">
        <ele>159</ele>
        <time>2023-10-30T18:51:43Z</time>
      </trkpt>
      <trkpt lat="48.52572" lon="-3.41419">
        <ele>159</ele>
        <time>2023-10-30T18:53:06Z</time>
      </trkpt>
      <trkpt lat="48.52603" lon="-3.41326">
        <ele>160</ele>
        <time>2023-10-30T18:54:38Z</time>
      </trkpt>
      <trkpt lat="48.52621" lon="-3.41189">
        <ele>164</ele>
        <time>2023-10-30T18:56:42Z</time>
      </trkpt>
      <trkpt lat="48.526" lon="-3.41109">
        <ele>164</ele>
        <time>2023-10-30T18:57:58Z</time>
      </trkpt>
      <trkpt lat="48.52529" lon="-3.41105">
        <ele>160</ele>
        <time>2023-10-30T18:59:33Z</time>
      </trkpt>
      <trkpt lat="48.52485" lon="-3.41091">
        <ele>159</ele>
        <time>2023-10-30T19:00:33Z</time>
      </trkpt>
      <trkpt lat="48.52382" lon="-3.41049">
        <ele>156</ele>
        <time>2023-10-30T19:02:55Z</time>
      </trkpt>
      <trkpt lat="48.52369" lon="-3.41057">
        <ele>155</ele>
        <time>2023-10-30T19:03:14Z</time>
      </trkpt>
      <trkpt lat="48.52319" lon="-3.41008">
        <ele>157</ele>
        <time>2023-10-30T19:04:33Z</time>
      </trkpt>
      <trkpt lat="48.5228" lon="-3.4095">
        <ele>160</ele>
        <time>2023-10-30T19:05:46Z</time>
      </trkpt>
      <trkpt lat="48.5225" lon="-3.40995">
        <ele>159</ele>
        <time>2023-10-30T19:06:43Z</time>
      </trkpt>
      <trkpt lat="48.52201" lon="-3.40972">
        <ele>154</ele>
        <time>2023-10-30T19:07:51Z</time>
      </trkpt>
      <trkpt lat="48.52189" lon="-3.40843">
        <ele>158</ele>
        <time>2023-10-30T19:09:46Z</time>
      </trkpt>
      <trkpt lat="48.52181" lon="-3.40803">
        <ele>158</ele>
        <time>2023-10-30T19:10:23Z</time>
      </trkpt>
      <trkpt lat="48.52185" lon="-3.40695">
        <ele>156</ele>
        <time>2023-10-30T19:11:59Z</time>
      </trkpt>
      <trkpt lat="48.52169" lon="-3.40576">
        <ele>149</ele>
        <time>2023-10-30T19:13:46Z</time>
      </trkpt>
      <trkpt lat="48.52163" lon="-3.4039">
        <ele>131</ele>
        <time>2023-10-30T19:16:31Z</time>
      </trkpt>
      <trkpt lat="48.52183" lon="-3.40388">
        <ele>132</ele>
        <time>2023-10-30T19:16:58Z</time>
      </trkpt>
      <trkpt lat="48.5221" lon="-3.40397">
        <ele>135</ele>
        <time>2023-10-30T19:17:34Z</time>
      </trkpt>
      <trkpt lat="48.52218" lon="-3.40359">
        <ele>133</ele>
        <time>2023-10-30T19:18:10Z</time>
      </trkpt>
      <trkpt lat="48.52187" lon="-3.4033">
        <ele>128</ele>
        <time>2023-10-30T19:18:58Z</time>
      </trkpt>
      <trkpt lat="48.52168" lon="-3.40297">
        <ele>124</ele>
        <time>2023-10-30T19:19:37Z</time>
      </trkpt>
      <trkpt lat="48.52164" lon="-3.40263">
        <ele>121</ele>
        <time>2023-10-30T19:20:07Z</time>
      </trkpt>
      <trkpt lat="48.52148" lon="-3.40222">
        <ele>118</ele>
        <time>2023-10-30T19:20:50Z</time>
      </trkpt>
      <trkpt lat="48.52136" lon="-3.40183">
        <ele>115</ele>
        <time>2023-10-30T19:21:28Z</time>
      </trkpt>
      <trkpt lat="48.52131" lon="-3.40146">
        <ele>111</ele>
        <time>2023-10-30T19:22:01Z</time>
      </trkpt>
      <trkpt lat="48.52083" lon="-3.40147">
        <ele>109</ele>
        <time>2023-10-30T19:23:05Z</time>
      </trkpt>
      <trkpt lat="48.51971" lon="-3.40241">
        <ele>110</ele>
        <time>2023-10-30T19:25:56Z</time>
      </trkpt>
      <trkpt lat="48.51918" lon="-3.40173">
        <ele>104</ele>
        <time>2023-10-30T19:27:29Z</time>
      </trkpt>
      <trkpt lat="48.51912" lon="-3.40132">
        <ele>111</ele>
        <time>2023-10-30T19:28:06Z</time>
      </trkpt>
      <trkpt lat="48.51919" lon="-3.40121">
        <ele>111</ele>
        <time>2023-10-30T19:28:19Z</time>
      </trkpt>
      <trkpt lat="48.51845" lon="-3.40004">
        <ele>140</ele>
        <time>2023-10-30T19:30:42Z</time>
      </trkpt>
      <trkpt lat="48.51794" lon="-3.39952">
        <ele>149</ele>
        <time>2023-10-30T19:32:05Z</time>
      </trkpt>
      <trkpt lat="48.51708" lon="-3.39866">
        <ele>158</ele>
        <time>2023-10-30T19:34:22Z</time>
      </trkpt>
      <trkpt lat="48.51693" lon="-3.3982">
        <ele>159</ele>
        <time>2023-10-30T19:35:08Z</time>
      </trkpt>
      <trkpt lat="48.51679" lon="-3.39699">
        <ele>165</ele>
        <time>2023-10-30T19:36:56Z</time>
      </trkpt>
      <trkpt lat="48.51597" lon="-3.39714">
        <ele>168</ele>
        <time>2023-10-30T19:38:46Z</time>
      </trkpt>
      <trkpt lat="48.51586" lon="-3.39624">
        <ele>169</ele>
        <time>2023-10-30T19:40:07Z</time>
      </trkpt>
      <trkpt lat="48.51587" lon="-3.39544">
        <ele>170</ele>
        <time>2023-10-30T19:41:18Z</time>
      </trkpt>
      <trkpt lat="48.5162" lon="-3.39437">
        <ele>175</ele>
        <time>2023-10-30T19:43:02Z</time>
      </trkpt>
      <trkpt lat="48.5163" lon="-3.39383">
        <ele>178</ele>
        <time>2023-10-30T19:43:52Z</time>
      </trkpt>
      <trkpt lat="48.51628" lon="-3.39337">
        <ele>180</ele>
        <time>2023-10-30T19:44:33Z</time>
      </trkpt>
      <trkpt lat="48.51617" lon="-3.39318">
        <ele>180</ele>
        <time>2023-10-30T19:44:55Z</time>
      </trkpt>
      <trkpt lat="48.516" lon="-3.39314">
        <ele>180</ele>
        <time>2023-10-30T19:45:18Z</time>
      </trkpt>
      <trkpt lat="48.51511" lon="-3.39368">
        <ele>178</ele>
        <time>2023-10-30T19:47:26Z</time>
      </trkpt>
      <trkpt lat="48.51453" lon="-3.39413">
        <ele>181</ele>
        <time>2023-10-30T19:48:53Z</time>
      </trkpt>
      <trkpt lat="48.51398" lon="-3.39427">
        <ele>187</ele>
        <time>2023-10-30T19:50:07Z</time>
      </trkpt>
      <trkpt lat="48.51345" lon="-3.39418">
        <ele>192</ele>
        <time>2023-10-30T19:51:18Z</time>
      </trkpt>
      <trkpt lat="48.51293" lon="-3.39383">
        <ele>196</ele>
        <time>2023-10-30T19:52:34Z</time>
      </trkpt>
      <trkpt lat="48.5124" lon="-3.3933">
        <ele>198</ele>
        <time>2023-10-30T19:53:59Z</time>
      </trkpt>
      <trkpt lat="48.51209" lon="-3.39295">
        <ele>199</ele>
        <time>2023-10-30T19:54:51Z</time>
      </trkpt>
      <trkpt lat="48.51176" lon="-3.39232">
        <ele>199</ele>
        <time>2023-10-30T19:56:02Z</time>
      </trkpt>
      <trkpt lat="48.51149" lon="-3.39165">
        <ele>200</ele>
        <time>2023-10-30T19:57:11Z</time>
      </trkpt>
      <trkpt lat="48.51155" lon="-3.39108">
        <ele>200</ele>
        <time>2023-10-30T19:58:02Z</time>
      </trkpt>
      <trkpt lat="48.51179" lon="-3.39059">
        <ele>199</ele>
        <time>2023-10-30T19:58:56Z</time>
      </trkpt>
      <trkpt lat="48.51196" lon="-3.39023">
        <ele>199</ele>
        <time>2023-10-30T19:59:35Z</time>
      </trkpt>
      <trkpt lat="48.51202" lon="-3.38978">
        <ele>200</ele>
        <time>2023-10-30T20:00:16Z</time>
      </trkpt>
      <trkpt lat="48.51206" lon="-3.38859">
        <ele>198</ele>
        <time>2023-10-30T20:02:01Z</time>
      </trkpt>
      <trkpt lat="48.51228" lon="-3.38659">
        <ele>204</ele>
        <time>2023-10-30T20:05:00Z</time>
      </trkpt>
      <trkpt lat="48.51248" lon="-3.38498">
        <ele>206</ele>
        <time>2023-10-30T20:07:25Z</time>
      </trkpt>
      <trkpt lat="48.51255" lon="-3.38398">
        <ele>205</ele>
        <time>2023-10-30T20:08:54Z</time>
      </trkpt>
      <trkpt lat="48.51251" lon="-3.38291">
        <ele>203</ele>
        <time>2023-10-30T20:10:29Z</time>
      </trkpt>
      <trkpt lat="48.51238" lon="-3.38202">
        <ele>203</ele>
        <time>2023-10-30T20:11:49Z</time>
      </trkpt>
      <trkpt lat="48.51214" lon="-3.38131">
        <ele>205</ele>
        <time>2023-10-30T20:13:00Z</time>
      </trkpt>
      <trkpt lat="48.51172" lon="-3.38062">
        <ele>208</ele>
        <time>2023-10-30T20:14:23Z</time>
      </trkpt>
      <trkpt lat="48.51121" lon="-3.37972">
        <ele>209</ele>
        <time>2023-10-30T20:16:07Z</time>
      </trkpt>
      <trkpt lat="48.51102" lon="-3.37939">
        <ele>208</ele>
        <time>2023-10-30T20:16:46Z</time>
      </trkpt>
      <trkpt lat="48.51064" lon="-3.37892">
        <ele>208</ele>
        <time>2023-10-30T20:17:52Z</time>
      </trkpt>
      <trkpt lat="48.51034" lon="-3.37846">
        <ele>207</ele>
        <time>2023-10-30T20:18:49Z</time>
      </trkpt>
      <trkpt lat="48.51017" lon="-3.378">
        <ele>206</ele>
        <time>2023-10-30T20:19:35Z</time>
      </trkpt>
      <trkpt lat="48.51016" lon="-3.3776">
        <ele>203</ele>
        <time>2023-10-30T20:20:11Z</time>
      </trkpt>
      <trkpt lat="48.5104" lon="-3.37679">
        <ele>199</ele>
        <time>2023-10-30T20:21:29Z</time>
      </trkpt>
      <trkpt lat="48.51072" lon="-3.37698">
        <ele>198</ele>
        <time>2023-10-30T20:22:15Z</time>
      </trkpt>
      <trkpt lat="48.5111" lon="-3.37706">
        <ele>197</ele>
        <time>2023-10-30T20:23:06Z</time>
      </trkpt>
      <trkpt lat="48.51196" lon="-3.37721">
        <ele>195</ele>
        <time>2023-10-30T20:25:02Z</time>
      </trkpt>
      <trkpt lat="48.51299" lon="-3.37746">
        <ele>190</ele>
        <time>2023-10-30T20:27:21Z</time>
      </trkpt>
      <trkpt lat="48.51381" lon="-3.37767">
        <ele>187</ele>
        <time>2023-10-30T20:29:12Z</time>
      </trkpt>
      <trkpt lat="48.51373" lon="-3.37845">
        <ele>184</ele>
        <time>2023-10-30T20:30:22Z</time>
      </trkpt>
      <trkpt lat="48.51428" lon="-3.37876">
        <ele>181</ele>
        <time>2023-10-30T20:31:40Z</time>
      </trkpt>
      <trkpt lat="48.51474" lon="-3.37944">
        <ele>178</ele>
        <time>2023-10-30T20:33:06Z</time>
      </trkpt>
      <trkpt lat="48.51504" lon="-3.37982">
        <ele>174</ele>
        <time>2023-10-30T20:33:58Z</time>
      </trkpt>
      <trkpt lat="48.51573" lon="-3.38355">
        <ele>162</ele>
        <time>2023-10-30T20:39:41Z</time>
      </trkpt>
      <trkpt lat="48.5164" lon="-3.38669">
        <ele>165</ele>
        <time>2023-10-30T20:44:32Z</time>
      </trkpt>
      <trkpt lat="48.5169" lon="-3.38694">
        <ele>165</ele>
        <time>2023-10-30T20:45:42Z</time>
      </trkpt>
      <trkpt lat="48.51749" lon="-3.38749">
        <ele>161</ele>
        <time>2023-10-30T20:47:15Z</time>
      </trkpt>
      <trkpt lat="48.51789" lon="-3.38766">
        <ele>162</ele>
        <time>2023-10-30T20:48:10Z</time>
      </trkpt>
      <trkpt lat="48.51827" lon="-3.38768">
        <ele>160</ele>
        <time>2023-10-30T20:49:01Z</time>
      </trkpt>
      <trkpt lat="48.51882" lon="-3.38777">
        <ele>157</ele>
        <time>2023-10-30T20:50:15Z</time>
      </trkpt>
      <trkpt lat="48.5192" lon="-3.38804">
        <ele>155</ele>
        <time>2023-10-30T20:51:11Z</time>
      </trkpt>
      <trkpt lat="48.51943" lon="-3.3882">
        <ele>154</ele>
        <time>2023-10-30T20:51:45Z</time>
      </trkpt>
      <trkpt lat="48.52092" lon="-3.39032">
        <ele>134</ele>
        <time>2023-10-30T20:56:18Z</time>
      </trkpt>
      <trkpt lat="48.52132" lon="-3.39208">
        <ele>130</ele>
        <time>2023-10-30T20:59:03Z</time>
      </trkpt>
      <trkpt lat="48.52165" lon="-3.39283">
        <ele>126</ele>
        <time>2023-10-30T21:00:22Z</time>
      </trkpt>
      <trkpt lat="48.52193" lon="-3.39375">
        <ele>127</ele>
        <time>2023-10-30T21:01:52Z</time>
      </trkpt>
      <trkpt lat="48.52249" lon="-3.39464">
        <ele>115</ele>
        <time>2023-10-30T21:03:40Z</time>
      </trkpt>
      <trkpt lat="48.5227" lon="-3.39446">
        <ele>114</ele>
        <time>2023-10-30T21:04:12Z</time>
      </trkpt>
      <trkpt lat="48.52308" lon="-3.39438">
        <ele>113</ele>
        <time>2023-10-30T21:05:04Z</time>
      </trkpt>
      <trkpt lat="48.52371" lon="-3.39548">
        <ele>110</ele>
        <time>2023-10-30T21:07:12Z</time>
      </trkpt>
      <trkpt lat="48.5241" lon="-3.3959">
        <ele>109</ele>
        <time>2023-10-30T21:08:16Z</time>
      </trkpt>
      <trkpt lat="48.52459" lon="-3.39578">
        <ele>109</ele>
        <time>2023-10-30T21:09:22Z</time>
      </trkpt>
      <trkpt lat="48.52643" lon="-3.39306">
        <ele>112</ele>
        <time>2023-10-30T21:15:06Z</time>
      </trkpt>
      <trkpt lat="48.52646" lon="-3.39277">
        <ele>115</ele>
        <time>2023-10-30T21:15:32Z</time>
      </trkpt>
      <trkpt lat="48.52685" lon="-3.39216">
        <ele>117</ele>
        <time>2023-10-30T21:16:47Z</time>
      </trkpt>
      <trkpt lat="48.52706" lon="-3.39088">
        <ele>123</ele>
        <time>2023-10-30T21:18:43Z</time>
      </trkpt>
      <trkpt lat="48.52725" lon="-3.39037">
        <ele>124</ele>
        <time>2023-10-30T21:19:35Z</time>
      </trkpt>
      <trkpt lat="48.52726" lon="-3.38928">
        <ele>131</ele>
        <time>2023-10-30T21:21:11Z</time>
      </trkpt>
      <trkpt lat="48.52746" lon="-3.389">
        <ele>130</ele>
        <time>2023-10-30T21:21:48Z</time>
      </trkpt>
      <trkpt lat="48.52773" lon="-3.38821">
        <ele>135</ele>
        <time>2023-10-30T21:23:06Z</time>
      </trkpt>
      <trkpt lat="48.52793" lon="-3.38809">
        <ele>137</ele>
        <time>2023-10-30T21:23:35Z</time>
      </trkpt>
      <trkpt lat="48.52824" lon="-3.38816">
        <ele>138</ele>
        <time>2023-10-30T21:24:17Z</time>
      </trkpt>
      <trkpt lat="48.52854" lon="-3.38773">
        <ele>144</ele>
        <time>2023-10-30T21:25:12Z</time>
      </trkpt>
      <trkpt lat="48.52896" lon="-3.38775">
        <ele>147</ele>
        <time>2023-10-30T21:26:08Z</time>
      </trkpt>
      <trkpt lat="48.52917" lon="-3.38746">
        <ele>150</ele>
        <time>2023-10-30T21:26:46Z</time>
      </trkpt>
      <trkpt lat="48.52958" lon="-3.3876">
        <ele>151</ele>
        <time>2023-10-30T21:27:42Z</time>
      </trkpt>
      <trkpt lat="48.5301" lon="-3.3876">
        <ele>153</ele>
        <time>2023-10-30T21:28:52Z</time>
      </trkpt>
      <trkpt lat="48.53017" lon="-3.38784">
        <ele>151</ele>
        <time>2023-10-30T21:29:15Z</time>
      </trkpt>
      <trkpt lat="48.53037" lon="-3.38794">
        <ele>151</ele>
        <time>2023-10-30T21:29:43Z</time>
      </trkpt>
      <trkpt lat="48.5309" lon="-3.38802">
        <ele>153</ele>
        <time>2023-10-30T21:30:54Z</time>
      </trkpt>
      <trkpt lat="48.53121" lon="-3.38826">
        <ele>153</ele>
        <time>2023-10-30T21:31:40Z</time>
      </trkpt>
      <trkpt lat="48.53158" lon="-3.38835">
        <ele>153</ele>
        <time>2023-10-30T21:32:30Z</time>
      </trkpt>
      <trkpt lat="48.53181" lon="-3.3867">
        <ele>163</ele>
        <time>2023-10-30T21:34:59Z</time>
      </trkpt>
      <trkpt lat="48.53214" lon="-3.38658">
        <ele>163</ele>
        <time>2023-10-30T21:35:45Z</time>
      </trkpt>
      <trkpt lat="48.53224" lon="-3.38639">
        <ele>164</ele>
        <time>2023-10-30T21:36:06Z</time>
      </trkpt>
      <trkpt lat="48.53143" lon="-3.38556">
        <ele>169</ele>
        <time>2023-10-30T21:38:17Z</time>
      </trkpt>
      <trkpt lat="48.52987" lon="-3.3845">
        <ele>168</ele>
        <time>2023-10-30T21:42:05Z</time>
      </trkpt>
      <trkpt lat="48.5299" lon="-3.38441">
        <ele>169</ele>
        <time>2023-10-30T21:42:14Z</time>
      </trkpt>
      <trkpt lat="48.5315" lon="-3.38553">
        <ele>169</ele>
        <time>2023-10-30T21:46:09Z</time>
      </trkpt>
      <trkpt lat="48.53224" lon="-3.3863">
        <ele>165</ele>
        <time>2023-10-30T21:48:09Z</time>
      </trkpt>
      <trkpt lat="48.5327" lon="-3.38669">
        <ele>161</ele>
        <time>2023-10-30T21:49:20Z</time>
      </trkpt>
      <trkpt lat="48.53323" lon="-3.38681">
        <ele>157</ele>
        <time>2023-10-30T21:50:31Z</time>
      </trkpt>
      <trkpt lat="48.53331" lon="-3.38634">
        <ele>159</ele>
        <time>2023-10-30T21:51:14Z</time>
      </trkpt>
      <trkpt lat="48.53347" lon="-3.38596">
        <ele>161</ele>
        <time>2023-10-30T21:51:54Z</time>
      </trkpt>
      <trkpt lat="48.53428" lon="-3.38556">
        <ele>156</ele>
        <time>2023-10-30T21:53:48Z</time>
      </trkpt>
      <trkpt lat="48.53518" lon="-3.38549">
        <ele>149</ele>
        <time>2023-10-30T21:55:48Z</time>
      </trkpt>
      <trkpt lat="48.53668" lon="-3.38517">
        <ele>146</ele>
        <time>2023-10-30T21:59:10Z</time>
      </trkpt>
      <trkpt lat="48.53743" lon="-3.38527">
        <ele>143</ele>
        <time>2023-10-30T22:00:50Z</time>
      </trkpt>
      <trkpt lat="48.53787" lon="-3.38523">
        <ele>139</ele>
        <time>2023-10-30T22:01:49Z</time>
      </trkpt>
      <trkpt lat="48.53828" lon="-3.38493">
        <ele>137</ele>
        <time>2023-10-30T22:02:50Z</time>
      </trkpt>
      <trkpt lat="48.53985" lon="-3.383">
        <ele>127</ele>
        <time>2023-10-30T22:07:20Z</time>
      </trkpt>
      <trkpt lat="48.54028" lon="-3.38332">
        <ele>121</ele>
        <time>2023-10-30T22:08:24Z</time>
      </trkpt>
      <trkpt lat="48.54083" lon="-3.38367">
        <ele>112</ele>
        <time>2023-10-30T22:09:44Z</time>
      </trkpt>
      <trkpt lat="48.541" lon="-3.38332">
        <ele>111</ele>
        <time>2023-10-30T22:10:22Z</time>
      </trkpt>
      <trkpt lat="48.5411" lon="-3.38273">
        <ele>110</ele>
        <time>2023-10-30T22:11:16Z</time>
      </trkpt>
      <trkpt lat="48.5413" lon="-3.38255">
        <ele>107</ele>
        <time>2023-10-30T22:11:47Z</time>
      </trkpt>
      <trkpt lat="48.54132" lon="-3.38309">
        <ele>106</ele>
        <time>2023-10-30T22:12:35Z</time>
      </trkpt>
      <trkpt lat="48.54119" lon="-3.38392">
        <ele>107</ele>
        <time>2023-10-30T22:13:50Z</time>
      </trkpt>
      <trkpt lat="48.54061" lon="-3.38691">
        <ele>106</ele>
        <time>2023-10-30T22:18:25Z</time>
      </trkpt>
      <trkpt lat="48.54073" lon="-3.38817">
        <ele>108</ele>
        <time>2023-10-30T22:20:18Z</time>
      </trkpt>
      <trkpt lat="48.54092" lon="-3.38929">
        <ele>114</ele>
        <time>2023-10-30T22:22:00Z</time>
      </trkpt>
      <trkpt lat="48.5414" lon="-3.39042">
        <ele>110</ele>
        <time>2023-10-30T22:23:59Z</time>
      </trkpt>
      <trkpt lat="48.54154" lon="-3.39149">
        <ele>108</ele>
        <time>2023-10-30T22:25:35Z</time>
      </trkpt>
      <trkpt lat="48.54156" lon="-3.39235">
        <ele>109</ele>
        <time>2023-10-30T22:26:51Z</time>
      </trkpt>
      <trkpt lat="48.54163" lon="-3.39281">
        <ele>108</ele>
        <time>2023-10-30T22:27:33Z</time>
      </trkpt>
      <trkpt lat="48.54178" lon="-3.39319">
        <ele>106</ele>
        <time>2023-10-30T22:28:12Z</time>
      </trkpt>
      <trkpt lat="48.54181" lon="-3.39391">
        <ele>108</ele>
        <time>2023-10-30T22:29:16Z</time>
      </trkpt>
      <trkpt lat="48.542" lon="-3.39448">
        <ele>107</ele>
        <time>2023-10-30T22:30:12Z</time>
      </trkpt>
      <trkpt lat="48.54265" lon="-3.39535">
        <ele>99</ele>
        <time>2023-10-30T22:32:08Z</time>
      </trkpt>
      <trkpt lat="48.54273" lon="-3.39577">
        <ele>99</ele>
        <time>2023-10-30T22:32:47Z</time>
      </trkpt>
      <trkpt lat="48.54375" lon="-3.39578">
        <ele>95</ele>
        <time>2023-10-30T22:35:03Z</time>
      </trkpt>
      <trkpt lat="48.54402" lon="-3.39519">
        <ele>94</ele>
        <time>2023-10-30T22:36:06Z</time>
      </trkpt>
      <trkpt lat="48.54426" lon="-3.39507">
        <ele>94</ele>
        <time>2023-10-30T22:36:40Z</time>
      </trkpt>
      <trkpt lat="48.54434" lon="-3.39489">
        <ele>94</ele>
        <time>2023-10-30T22:36:59Z</time>
      </trkpt>
      <trkpt lat="48.54455" lon="-3.39492">
        <ele>94</ele>
        <time>2023-10-30T22:37:27Z</time>
      </trkpt>
      <trkpt lat="48.54477" lon="-3.39503">
        <ele>94</ele>
        <time>2023-10-30T22:37:58Z</time>
      </trkpt>
      <trkpt lat="48.54493" lon="-3.39447">
        <ele>95</ele>
        <time>2023-10-30T22:38:52Z</time>
      </trkpt>
      <trkpt lat="48.5452" lon="-3.39559">
        <ele>93</ele>
        <time>2023-10-30T22:40:37Z</time>
      </trkpt>
      <trkpt lat="48.54529" lon="-3.39555">
        <ele>93</ele>
        <time>2023-10-30T22:40:50Z</time>
      </trkpt>
    </trkseg>
  </trk>
</gpx>